Time;durP1;ratioP1;P1;durP2;ratioP2;P2;SDS_P1;SDS_P2;PMS_P1;PMS_P2;Temp;Humidity;BMP_temperature;BMP_pressure;BME280_temperature;BME280_humidity;BME280_pressure;Samples;Min_cycle;Max_cycle;Signal;HPM_P1;HPM_P2
2022/08/23 00:02:00;;;;;;;54.30;12.45;;;;;;;30.34;56.46;100912.20;1779521;81;21022;-51
2022/08/23 00:04:31;;;;;;;44.48;11.08;;;;;;;30.33;56.63;100914.55;1779359;80;20967;-49
2022/08/23 00:06:58;;;;;;;41.80;10.98;;;;;;;30.34;56.83;100917.56;1731009;82;21575;-51
2022/08/23 00:09:26;;;;;;;44.50;11.30;;;;;;;30.31;57.01;100912.53;1731384;82;21038;-50
2022/08/23 00:12:09;;;;;;;39.33;9.75;;;;;;;30.31;57.15;100920.58;1732013;82;21023;-51
2022/08/23 00:14:40;;;;;;;48.45;10.63;;;;;;;30.30;57.24;100918.87;1718525;82;21098;-50
2022/08/23 00:17:09;;;;;;;;;;;;;;;30.30;57.37;100920.71;1733532;82;20967;-51
2022/08/23 00:19:36;;;;;;;49.75;10.65;;;;;;;30.29;57.48;100921.70;1729992;82;20133;-50
2022/08/23 00:22:03;;;;;;;43.68;8.73;;;;;;;30.28;57.52;100919.50;1730056;82;21046;-53
2022/08/23 00:24:31;;;;;;;52.62;10.38;;;;;;;30.27;57.57;100918.33;1731426;82;21638;-50
2022/08/23 00:27:13;;;;;;;46.40;9.63;;;;;;;30.26;57.66;100910.77;1731704;82;21011;-52
2022/08/23 00:29:50;;;;;;;52.33;10.58;;;;;;;30.26;57.64;100913.45;1730991;82;20971;-52
2022/08/23 00:32:27;;;;;;;42.78;9.95;;;;;;;30.26;57.69;100912.10;1730494;82;21023;-49
2022/08/23 00:34:55;;;;;;;49.63;9.63;;;;;;;30.24;57.76;100910.08;1730082;82;21023;-52
2022/08/23 00:37:23;;;;;;;38.35;8.15;;;;;;;30.24;57.78;100914.10;1730001;82;21033;-49
2022/08/23 00:39:50;;;;;;;41.92;9.05;;;;;;;30.22;57.82;100916.09;1731164;82;21047;-49
2022/08/23 00:48:31;;;;;;;37.20;8.90;;;;;;;30.19;58.02;100929.81;1714970;82;21074;-50
2022/08/23 00:51:03;;;;;;;42.25;9.50;;;;;;;30.17;58.04;100926.44;1648394;86;21085;-53
2022/08/23 00:53:41;;;;;;;36.35;8.90;;;;;;;30.17;58.05;100930.47;1652114;86;21074;-50
2022/08/23 00:56:11;;;;;;;37.33;9.13;;;;;;;30.18;58.05;100936.20;1721214;82;21113;-50
2022/08/23 00:58:38;;;;;;;38.90;8.95;;;;;;;30.17;58.06;100935.02;1652898;86;21018;-51
2022/08/23 01:01:05;;;;;;;41.83;8.20;;;;;;;30.16;58.12;100936.85;1717304;82;21039;-51
2022/08/23 01:03:34;;;;;;;34.18;9.08;;;;;;;30.15;58.14;100935.16;1642971;86;21033;-50
2022/08/23 01:06:25;;;;;;;47.48;8.18;;;;;;;30.15;58.13;100933.81;1634299;87;21126;-49
2022/08/23 01:08:58;;;;;;;49.20;9.40;;;;;;;30.15;58.12;100934.33;1639510;87;21035;-48
2022/08/23 01:11:39;;;;;;;41.28;8.85;;;;;;;30.14;58.11;100928.60;1639703;87;21397;-49
2022/08/23 01:14:13;;;;;;;41.85;9.03;;;;;;;30.12;58.13;100934.13;1639320;87;21102;-52
2022/08/23 01:17:07;;;;;;;43.42;9.55;;;;;;;30.11;58.14;100933.77;1607058;88;21543;-52
2022/08/23 01:19:50;;;;;;;43.23;8.95;;;;;;;30.09;58.18;100923.69;1637775;87;21078;-52
2022/08/23 01:22:49;;;;;;;42.73;9.95;;;;;;;30.08;58.19;100919.34;1591198;89;21593;-52
2022/08/23 01:25:20;;;;;;;43.55;9.38;;;;;;;30.08;58.27;100919.34;1593146;89;21564;-50
2022/08/23 01:27:48;;;;;;;38.50;9.05;;;;;;;30.07;58.37;100922.19;1587870;89;21085;-49
2022/08/23 01:30:20;;;;;;;39.35;8.68;;;;;;;30.07;58.39;100923.00;1583978;90;21521;-49
2022/08/23 01:32:50;;;;;;;41.70;9.38;;;;;;;30.07;58.43;100931.58;1593537;89;21160;-49
2022/08/23 01:35:19;;;;;;;47.83;9.70;;;;;;;30.07;58.43;100931.05;1593491;89;21056;-49
2022/08/23 01:37:45;;;;;;;43.00;9.55;;;;;;;30.06;58.37;100930.73;1593148;89;21060;-50
2022/08/23 01:40:12;;;;;;;38.48;10.50;;;;;;;30.05;58.24;100935.73;1591436;89;21128;-50
2022/08/23 01:42:40;;;;;;;49.40;11.10;;;;;;;30.05;58.11;100933.05;1591748;89;21045;-49
2022/08/23 01:45:10;;;;;;;46.37;11.35;;;;;;;30.06;58.05;100936.58;1582743;90;21106;-50
2022/08/23 01:47:38;;;;;;;54.70;11.00;;;;;;;30.04;58.00;100936.75;1573825;91;21072;-50
2022/08/23 01:50:06;;;;;;;48.17;10.18;;;;;;;30.03;58.00;100945.78;1652296;86;21015;-51
2022/08/23 01:52:35;;;;;;;45.88;10.90;;;;;;;30.03;57.90;100940.41;1651195;86;21631;-52
2022/08/23 01:55:02;;;;;;;52.90;10.95;;;;;;;30.03;57.74;100940.41;1648224;86;21005;-49
2022/08/23 01:57:29;;;;;;;45.05;10.63;;;;;;;30.02;57.61;100942.77;1652274;86;21497;-51
2022/08/23 01:59:56;;;;;;;49.18;11.03;;;;;;;30.01;57.47;100938.37;1702176;82;21035;-49
2022/08/23 02:02:24;;;;;;;52.53;10.38;;;;;;;30.00;57.23;100938.05;1737936;82;21574;-52
2022/08/23 02:04:51;;;;;;;32.58;8.48;;;;;;;29.99;57.02;100940.38;1694692;84;21110;-50
2022/08/23 02:07:18;;;;;;;36.95;9.23;;;;;;;29.97;56.95;100931.64;1669615;85;21080;-50
2022/08/23 02:09:45;;;;;;;49.80;9.83;;;;;;;29.96;56.84;100936.67;1674561;84;21599;-51
2022/08/23 02:12:12;;;;;;;42.65;9.25;;;;;;;29.94;56.79;100935.98;1669330;85;21092;-57
2022/08/23 02:14:41;;;;;;;35.55;8.78;;;;;;;29.94;56.76;100930.62;1738147;82;20999;-55
2022/08/23 02:17:09;;;;;;;35.40;8.45;;;;;;;29.92;56.75;100935.30;1738916;80;21002;-49
2022/08/23 02:19:37;;;;;;;30.20;8.25;;;;;;;29.91;56.75;100932.25;1789518;80;21026;-52
2022/08/23 02:22:05;;;;;;;37.83;8.30;;;;;;;29.89;56.79;100928.87;1789863;80;21002;-51
2022/08/23 02:24:33;;;;;;;32.30;8.20;;;;;;;29.87;56.90;100920.14;1789941;80;21018;-53
2022/08/23 02:27:02;;;;;;;34.48;8.73;;;;;;;29.85;57.03;100921.28;1789683;80;21494;-49
2022/08/23 02:29:29;;;;;;;33.20;8.90;;;;;;;29.84;57.10;100931.19;1789936;80;20963;-50
2022/08/23 02:31:57;;;;;;;26.30;7.53;;;;;;;29.81;57.16;100932.83;1789941;80;21034;-50
2022/08/23 02:34:24;;;;;;;29.30;7.35;;;;;;;29.79;57.30;100932.13;1789716;80;21054;-51
2022/08/23 02:36:51;;;;;;;32.40;7.47;;;;;;;29.77;57.44;100930.09;1789870;80;21030;-49
2022/08/23 02:39:17;;;;;;;27.10;6.70;;;;;;;29.77;57.59;100929.25;1789586;80;21006;-51
2022/08/23 02:41:44;;;;;;;33.95;7.90;;;;;;;29.76;57.73;100932.42;1789912;80;21540;-51
2022/08/23 02:44:11;;;;;;;41.73;8.83;;;;;;;29.74;57.79;100926.37;1789870;80;21093;-49
2022/08/23 02:46:40;;;;;;;44.33;9.15;;;;;;;29.71;57.94;100932.87;1789683;80;21061;-50
2022/08/23 02:49:06;;;;;;;34.10;7.97;;;;;;;29.70;57.98;100933.84;1788427;80;21069;-49
2022/08/23 02:51:34;;;;;;;28.52;7.25;;;;;;;29.69;58.00;100938.03;1779153;80;21030;-56
2022/08/23 02:54:01;;;;;;;26.27;6.72;;;;;;;29.69;58.03;100946.08;1779063;80;21058;-49
2022/08/23 02:56:29;;;;;;;33.13;7.47;;;;;;;29.68;58.02;100949.73;1779381;80;21038;-51
2022/08/23 02:58:56;;;;;;;27.90;7.28;;;;;;;29.68;57.93;100959.13;1779151;80;21038;-51
2022/08/23 03:01:27;;;;;;;29.20;7.58;;;;;;;29.69;57.90;100960.83;1779642;81;21018;-51
2022/08/23 03:03:56;;;;;;;31.57;6.17;;;;;;;29.68;57.89;100959.13;1778491;81;21066;-49
2022/08/23 03:06:23;;;;;;;32.28;7.20;;;;;;;29.67;57.89;100962.82;1779321;80;21476;-50
2022/08/23 03:08:50;;;;;;;29.25;6.58;;;;;;;29.66;57.74;100961.97;1778984;81;20967;-50
2022/08/23 03:11:20;;;;;;;29.90;8.15;;;;;;;29.64;57.59;100969.81;1779317;81;21074;-49
2022/08/23 03:13:49;;;;;;;23.60;6.87;;;;;;;29.65;57.53;100972.85;1779370;80;21034;-51
2022/08/23 03:16:17;;;;;;;29.18;6.50;;;;;;;29.61;57.58;100980.33;1779406;80;21026;-53
2022/08/23 03:18:45;;;;;;;42.75;7.70;;;;;;;29.61;57.57;100980.33;1779034;80;20995;-52
2022/08/23 03:21:12;;;;;;;33.60;7.42;;;;;;;29.61;57.56;100984.88;1779223;81;21022;-50
2022/08/23 03:23:39;;;;;;;21.30;7.15;;;;;;;29.61;57.57;100990.24;1757322;81;21051;-51
2022/08/23 03:26:08;;;;;;;34.00;7.87;;;;;;;29.59;57.54;100990.89;1779056;80;21062;-49
2022/08/23 03:28:37;;;;;;;28.02;7.90;;;;;;;29.58;57.61;100994.06;1779239;80;21108;-49
2022/08/23 03:31:04;;;;;;;27.07;6.85;;;;;;;29.56;57.62;100993.36;1758896;80;21030;-52
2022/08/23 03:33:32;;;;;;;27.30;7.30;;;;;;;29.57;57.71;100996.90;1757723;81;21011;-49
2022/08/23 03:36:02;;;;;;;21.37;6.58;;;;;;;29.56;57.80;101000.55;1779212;80;21019;-50
2022/08/23 03:38:30;;;;;;;18.95;6.85;;;;;;;29.56;57.85;101004.09;1689957;84;21542;-49
2022/08/23 03:40:58;;;;;;;30.88;7.08;;;;;;;29.57;57.98;101004.94;1690684;83;21093;-50
2022/08/23 03:43:25;;;;;;;30.15;6.85;;;;;;;29.58;57.98;101006.61;1693530;83;21041;-52
2022/08/23 03:45:52;;;;;;;27.13;5.67;;;;;;;29.58;57.88;101014.17;1694612;83;21530;-51
2022/08/23 03:48:19;;;;;;;21.00;5.92;;;;;;;29.58;57.85;101014.66;1694483;84;21043;-50
2022/08/23 03:50:46;;;;;;;29.72;6.30;;;;;;;29.57;57.86;101015.15;1692901;83;21554;-49
2022/08/23 03:53:13;;;;;;;20.90;5.95;;;;;;;29.58;57.85;101018.68;1689811;84;21034;-51
2022/08/23 03:55:41;;;;;;;22.15;6.47;;;;;;;29.59;57.87;101021.73;1686823;84;21026;-50
2022/08/23 03:58:10;;;;;;;25.88;6.40;;;;;;;29.61;57.97;101019.73;1668142;84;21070;-51
2022/08/23 04:00:37;;;;;;;22.67;6.37;;;;;;;29.60;58.11;101022.91;1687448;83;21041;-49
2022/08/23 04:03:04;;;;;;;19.95;6.67;;;;;;;29.60;58.16;101020.72;1696196;84;21047;-50
2022/08/23 04:05:32;;;;;;;21.60;6.60;;;;;;;29.60;58.16;101021.57;1685726;84;21523;-49
2022/08/23 04:08:09;;;;;;;25.68;6.00;;;;;;;29.61;58.12;101029.95;1694448;83;21672;-50
2022/08/23 04:10:38;;;;;;;27.32;7.70;;;;;;;29.64;57.99;101035.52;1666969;84;21045;-52
2022/08/23 04:13:07;;;;;;;24.98;6.00;;;;;;;29.63;57.76;101035.19;1690974;84;21053;-51
2022/08/23 04:15:35;;;;;;;19.12;6.08;;;;;;;29.64;57.70;101032.84;1692311;84;21489;-54
2022/08/23 04:18:01;;;;;;;26.75;7.55;;;;;;;29.64;57.60;101034.17;1669958;84;21041;-49
2022/08/23 04:20:29;;;;;;;28.42;6.37;;;;;;;29.64;57.54;101031.49;1686733;84;21117;-50
2022/08/23 04:22:58;;;;;;;20.52;5.85;;;;;;;29.66;57.52;101029.50;1686808;84;21041;-50
2022/08/23 04:25:27;;;;;;;21.10;7.35;;;;;;;29.67;57.50;101032.55;1699920;84;21539;-49
2022/08/23 04:27:54;;;;;;;26.97;6.30;;;;;;;29.68;57.57;101028.86;1690245;84;21527;-50
2022/08/23 04:30:21;;;;;;;22.25;6.28;;;;;;;29.71;57.51;101024.55;1690243;84;21046;-55
2022/08/23 04:32:48;;;;;;;25.80;6.42;;;;;;;29.71;57.32;101025.89;1690106;84;21010;-53
2022/08/23 04:35:15;;;;;;;26.50;6.10;;;;;;;29.71;57.29;101032.11;1743019;80;21011;-53
2022/08/23 04:37:42;;;;;;;28.60;6.40;;;;;;;29.70;57.22;101029.55;1789447;80;20990;-55
2022/08/23 04:42:56;;;;;;;16.20;5.10;;;;;;;29.70;57.18;101034.92;1769824;80;21068;-54
2022/08/23 04:45:25;;;;;;;16.65;5.12;;;;;;;29.70;57.18;101033.09;1789765;80;21483;-53
2022/08/23 04:47:52;;;;;;;19.87;5.78;;;;;;;29.70;57.23;101034.92;1790044;80;20994;-48
2022/08/23 04:50:20;;;;;;;19.15;5.67;;;;;;;29.72;57.26;101036.95;1785611;80;21003;-50
2022/08/23 04:53:06;;;;;;;22.93;5.87;;;;;;;29.73;57.14;101046.73;1779214;81;21160;-49
2022/08/23 04:55:35;;;;;;;27.25;6.85;;;;;;;29.75;56.95;101051.45;1776390;81;20971;-50
2022/08/23 04:58:05;;;;;;;15.88;5.35;;;;;;;29.77;56.81;101050.81;1721418;83;21105;-51
2022/08/23 05:00:34;;;;;;;27.47;5.37;;;;;;;29.80;56.51;101053.17;1721481;83;21066;-50
2022/08/23 05:03:01;;;;;;;20.95;6.00;;;;;;;29.82;56.40;101059.23;1721597;83;21139;-49
2022/08/23 05:05:29;;;;;;;24.85;5.72;;;;;;;29.84;56.24;101051.91;1721577;83;21070;-52
2022/08/23 05:07:58;;;;;;;21.12;6.30;;;;;;;29.86;56.19;101059.31;1721284;83;21506;-50
2022/08/23 05:10:25;;;;;;;20.85;5.75;;;;;;;29.88;56.15;101060.02;1721385;83;21034;-50
2022/08/23 05:12:53;;;;;;;20.02;5.67;;;;;;;29.91;56.08;101061.52;1721443;83;21030;-51
2022/08/23 05:15:21;;;;;;;14.03;5.08;;;;;;;29.94;56.16;101065.27;1721310;83;21119;-50
2022/08/23 05:17:50;;;;;;;16.93;5.78;;;;;;;29.98;56.20;101070.19;1721437;83;21042;-49
2022/08/23 05:20:18;;;;;;;19.45;5.83;;;;;;;30.03;56.26;101071.05;1688562;83;21020;-50
2022/08/23 05:22:45;;;;;;;14.03;4.25;;;;;;;30.07;56.22;101066.58;1721651;83;21046;-50
2022/08/23 05:25:13;;;;;;;18.37;4.28;;;;;;;30.11;56.14;101085.41;1638242;86;21068;-51
2022/08/23 05:27:40;;;;;;;13.40;4.70;;;;;;;30.15;56.03;101081.43;1635083;86;21107;-49
2022/08/23 05:30:10;;;;;;;21.77;4.90;;;;;;;30.21;56.00;101083.51;1636512;86;21062;-51
2022/08/23 05:32:37;;;;;;;17.52;4.90;;;;;;;30.27;55.97;101078.91;1627253;86;21146;-50
2022/08/23 05:35:05;;;;;;;20.52;4.65;;;;;;;30.32;55.82;101083.34;1639881;86;21057;-56
2022/08/23 05:37:33;;;;;;;20.80;4.87;;;;;;;30.37;55.77;101086.42;1614503;86;21019;-53
2022/08/23 05:40:00;;;;;;;11.80;3.98;;;;;;;30.42;55.75;101086.80;1636480;86;21501;-49
2022/08/23 05:42:27;;;;;;;16.75;4.47;;;;;;;30.49;55.78;101089.72;1638083;86;21506;-50
2022/08/23 05:44:54;;;;;;;16.52;3.75;;;;;;;30.53;55.66;101084.38;1638984;86;21039;-49
2022/08/23 05:47:21;;;;;;;14.78;4.33;;;;;;;30.59;55.58;101086.94;1638884;86;21520;-55
2022/08/23 05:49:49;;;;;;;14.73;3.58;;;;;;;30.66;55.52;101089.38;1607239;88;21035;-50
2022/08/23 05:52:16;;;;;;;15.60;4.78;;;;;;;30.73;55.48;101091.80;1619225;88;21054;-49
2022/08/23 05:54:43;;;;;;;15.75;3.75;;;;;;;30.79;55.35;101095.21;1642719;85;21001;-52
2022/08/23 05:57:17;;;;;;;12.07;3.72;;;;;;;30.82;55.24;101098.42;1656209;85;21561;-53
2022/08/23 05:59:44;;;;;;;12.05;3.75;;;;;;;30.89;55.29;101091.97;1671755;85;21014;-52
2022/08/23 06:02:10;;;;;;;21.33;4.50;;;;;;;30.95;55.25;101098.05;1690189;82;21450;-50
2022/08/23 06:04:38;;;;;;;15.60;4.03;;;;;;;31.01;55.17;101101.47;1732417;83;20985;-51
2022/08/23 06:07:05;;;;;;;18.87;4.72;;;;;;;31.09;55.04;101093.45;1733538;82;21029;-51
2022/08/23 06:09:33;;;;;;;20.05;4.58;;;;;;;31.17;54.81;101098.89;1733516;82;21033;-51
2022/08/23 06:12:00;;;;;;;17.00;4.80;;;;;;;31.25;54.81;101096.25;1733359;82;21040;-53
2022/08/23 06:14:28;;;;;;;19.00;4.50;;;;;;;31.36;54.60;101091.12;1733436;82;20973;-51
2022/08/23 06:16:55;;;;;;;13.10;3.72;;;;;;;31.46;54.19;101091.38;1733510;82;21002;-51
2022/08/23 06:19:23;;;;;;;14.47;4.33;;;;;;;31.55;53.96;101087.72;1733490;82;21006;-51
2022/08/23 06:21:57;;;;;;;20.32;4.40;;;;;;;31.62;53.82;101086.09;1638655;86;21010;-50
2022/08/23 06:24:25;;;;;;;12.85;4.00;;;;;;;31.71;53.73;101079.75;1638400;86;20994;-50
2022/08/23 06:27:00;;;;;;;12.85;3.85;;;;;;;31.81;53.43;101081.81;1625155;86;21486;-49
2022/08/23 06:29:26;;;;;;;12.18;3.77;;;;;;;31.89;53.14;101081.84;1638651;86;21102;-47
2022/08/23 06:31:55;;;;;;;12.10;3.58;;;;;;;31.94;52.81;101082.20;1635490;86;21046;-51
2022/08/23 06:34:31;;;;;;;13.55;4.22;;;;;;;31.97;52.71;101083.25;1601069;89;21003;-52
2022/08/23 06:37:15;;;;;;;16.05;3.50;;;;;;;31.99;52.61;101086.61;1573119;90;21034;-51
2022/08/23 06:39:59;;;;;;;27.50;4.85;;;;;;;32.04;52.38;101086.98;1482665;97;21070;-50
2022/08/23 06:42:27;;;;;;;14.60;4.33;;;;;;;32.08;52.30;101087.48;1460137;98;21629;-51
2022/08/23 06:44:56;;;;;;;14.63;3.80;;;;;;;32.12;52.28;101092.03;1482746;96;21082;-52
2022/08/23 06:47:25;;;;;;;16.57;4.35;;;;;;;32.16;52.08;101096.09;1414522;100;21146;-52
2022/08/23 06:49:51;;;;;;;18.67;4.22;;;;;;;32.20;51.91;101100.13;1445270;99;21591;-49
2022/08/23 06:52:20;;;;;;;16.85;4.50;;;;;;;32.25;51.71;101105.39;1439404;99;21623;-49
2022/08/23 06:54:48;;;;;;;14.07;3.90;;;;;;;32.30;51.65;101103.52;1439511;98;21529;-52
2022/08/23 06:57:19;;;;;;;12.10;3.50;;;;;;;32.34;51.53;101106.22;1439436;98;21172;-50
2022/08/23 07:00:09;;;;;;;11.50;3.37;;;;;;;32.38;51.14;101111.62;1448771;99;21127;-52
2022/08/23 07:02:38;;;;;;;16.80;3.98;;;;;;;32.40;50.87;101114.98;1452484;98;21564;-48
2022/08/23 07:05:23;;;;;;;13.48;3.70;;;;;;;32.44;50.59;101113.69;1452413;98;21636;-48
2022/08/23 07:07:52;;;;;;;12.73;4.25;;;;;;;32.44;50.24;101109.64;1452553;98;21108;-47
2022/08/23 07:10:20;;;;;;;14.58;4.33;;;;;;;32.45;50.04;101111.31;1452343;98;21683;-49
2022/08/23 07:12:48;;;;;;;14.73;4.28;;;;;;;32.47;49.96;101120.10;1452472;98;21107;-46
2022/08/23 07:15:17;;;;;;;14.87;4.33;;;;;;;32.49;49.89;101114.05;1452604;98;21173;-47
2022/08/23 07:17:46;;;;;;;15.55;4.28;;;;;;;32.51;49.83;101118.76;1452483;99;21103;-47
2022/08/23 07:20:13;;;;;;;11.90;4.00;;;;;;;32.51;49.56;101113.38;1452486;98;21445;-48
2022/08/23 07:22:43;;;;;;;15.15;3.90;;;;;;;32.50;49.40;101125.17;1452394;98;21144;-49
2022/08/23 07:25:10;;;;;;;13.72;3.92;;;;;;;32.47;49.34;101125.48;1435269;99;21245;-49
2022/08/23 07:27:38;;;;;;;16.97;4.28;;;;;;;32.45;49.42;101124.78;1452437;98;21717;-53
2022/08/23 07:30:07;;;;;;;16.85;4.75;;;;;;;32.46;49.40;101131.38;1435411;99;21590;-56
2022/08/23 07:32:36;;;;;;;14.53;3.83;;;;;;;32.51;49.28;101129.53;1495337;92;21068;-50
2022/08/23 07:35:10;;;;;;;12.98;3.90;;;;;;;32.53;49.14;101132.41;1517627;94;21056;-49
2022/08/23 07:37:39;;;;;;;19.75;4.25;;;;;;;32.60;48.99;101127.20;1545683;91;21027;-52
2022/08/23 07:40:09;;;;;;;15.70;4.87;;;;;;;32.66;48.90;101122.50;1593958;90;21058;-50
2022/08/23 07:42:36;;;;;;;20.00;4.78;;;;;;;32.71;48.67;101120.12;1606790;89;21053;-50
2022/08/23 07:45:03;;;;;;;14.95;3.67;;;;;;;32.75;48.58;101117.44;1593965;90;21083;-50
2022/08/23 07:47:33;;;;;;;13.68;4.12;;;;;;;32.76;48.54;101120.48;1594081;90;21027;-53
2022/08/23 07:50:00;;;;;;;11.50;4.42;;;;;;;32.76;48.39;101125.88;1591921;89;21064;-54
2022/08/23 07:52:27;;;;;;;16.48;3.95;;;;;;;32.74;48.22;101131.94;1655368;86;21125;-51
2022/08/23 07:54:54;;;;;;;21.17;4.95;;;;;;;32.70;48.34;101129.23;1613860;88;20975;-51
2022/08/23 07:57:26;;;;;;;14.43;4.03;;;;;;;32.69;48.13;101128.39;1632426;88;21034;-50
2022/08/23 07:59:57;;;;;;;18.95;4.08;;;;;;;32.69;48.32;101136.97;1592280;90;21557;-54
2022/08/23 08:02:29;;;;;;;12.88;4.28;;;;;;;32.65;48.30;101140.51;1592447;90;21110;-51
2022/08/23 08:04:57;;;;;;;19.67;3.95;;;;;;;32.66;48.53;101137.32;1562987;92;21083;-52
2022/08/23 08:07:26;;;;;;;16.75;4.87;;;;;;;32.69;48.14;101142.36;1555851;92;21540;-49
2022/08/23 08:09:54;;;;;;;13.30;3.93;;;;;;;32.71;47.92;101145.73;1563167;90;21510;-51
2022/08/23 08:12:21;;;;;;;12.82;3.83;;;;;;;32.74;47.67;101146.76;1545016;92;21255;-51
2022/08/23 08:14:49;;;;;;;14.95;3.98;;;;;;;32.74;47.63;101149.45;1562861;92;21052;-50
2022/08/23 08:17:17;;;;;;;14.00;4.08;;;;;;;32.76;47.52;101150.12;1549815;92;21054;-47
2022/08/23 08:20:02;;;;;;;15.45;4.12;;;;;;;32.74;47.33;101148.95;1563058;92;21086;-50
2022/08/23 08:22:37;;;;;;;10.35;4.50;;;;;;;32.74;47.19;101149.45;1500263;95;21104;-47
2022/08/23 08:25:15;;;;;;;9.33;3.92;;;;;;;32.73;47.21;101155.84;1546750;92;21484;-51
2022/08/23 08:27:44;;;;;;;11.53;4.00;;;;;;;32.72;47.32;101151.47;1525235;94;21598;-51
2022/08/23 08:30:11;;;;;;;10.78;3.60;;;;;;;32.69;47.17;101149.95;1549976;92;21047;-47
2022/08/23 08:32:38;;;;;;;10.50;3.98;;;;;;;32.69;47.19;101159.88;1533342;93;21053;-48
2022/08/23 08:35:05;;;;;;;12.93;4.72;;;;;;;32.68;47.31;101152.81;1537047;92;21042;-49
2022/08/23 08:37:32;;;;;;;10.72;4.45;;;;;;;32.70;47.32;101156.19;1630067;86;21082;-47
2022/08/23 08:40:00;;;;;;;13.03;4.28;;;;;;;32.70;47.13;101157.04;1647379;85;21018;-48
2022/08/23 08:42:59;;;;;;;14.78;4.83;;;;;;;32.71;47.22;101157.86;1643560;85;21002;-47
2022/08/23 08:45:32;;;;;;;17.90;4.83;;;;;;;32.74;47.18;101157.54;1689499;83;20977;-49
2022/08/23 08:48:06;;;;;;;15.05;3.85;;;;;;;32.78;47.22;101154.34;1639973;85;21007;-47
2022/08/23 08:50:54;;;;;;;18.82;4.60;;;;;;;32.84;47.19;101150.13;1683687;83;21077;-49
2022/08/23 08:53:37;;;;;;;18.15;4.85;;;;;;;32.91;47.30;101151.16;1617987;86;21032;-50
2022/08/23 08:56:25;;;;;;;17.42;4.20;;;;;;;32.95;46.50;101156.55;1600782;88;20996;-46
2022/08/23 08:59:00;;;;;;;17.60;5.03;;;;;;;32.98;46.70;101157.58;1592953;88;21025;-49
2022/08/23 09:01:28;;;;;;;12.33;4.60;;;;;;;33.00;46.60;101155.56;1626476;88;21059;-47
2022/08/23 09:03:55;;;;;;;17.20;4.05;;;;;;;33.03;46.67;101159.28;1628839;88;21009;-49
2022/08/23 09:06:51;;;;;;;17.05;4.20;;;;;;;33.05;46.66;101153.22;1626499;88;20996;-50
2022/08/23 09:09:52;;;;;;;16.40;4.33;;;;;;;33.09;46.71;101159.95;1629202;88;21496;-50
2022/08/23 09:12:55;;;;;;;16.62;5.37;;;;;;;33.10;46.35;101157.58;1627391;88;20987;-47
2022/08/23 09:15:50;;;;;;;18.80;4.75;;;;;;;33.14;46.53;101154.88;1608129;88;20993;-52
2022/08/23 09:18:17;;;;;;;25.00;4.85;;;;;;;33.16;46.78;101155.55;1607664;88;21023;-47
2022/08/23 09:20:46;;;;;;;18.42;5.45;;;;;;;33.16;46.72;101154.20;1610916;88;21013;-49
2022/08/23 09:23:24;;;;;;;17.65;4.60;;;;;;;33.16;46.65;101152.86;1610781;88;21066;-49
2022/08/23 09:25:59;;;;;;;23.92;5.05;;;;;;;33.12;46.63;101154.20;1612574;87;21053;-52
2022/08/23 09:28:34;;;;;;;19.67;4.78;;;;;;;33.08;46.87;101155.56;1535848;92;21072;-48
2022/08/23 09:31:01;;;;;;;22.07;5.20;;;;;;;33.06;47.11;101156.23;1582301;90;21009;-47
2022/08/23 09:33:41;;;;;;;24.67;6.30;;;;;;;33.05;47.06;101164.00;1561062;91;21049;-51
2022/08/23 09:36:24;;;;;;;24.45;6.75;;;;;;;33.00;47.30;101158.26;1580343;90;21519;-51
2022/08/23 09:39:03;;;;;;;32.25;7.92;;;;;;;32.97;47.51;101158.58;1580566;90;21001;-48
2022/08/23 09:41:36;;;;;;;26.05;6.03;;;;;;;32.96;47.75;101156.88;1511904;94;21087;-50
2022/08/23 09:44:12;;;;;;;38.48;8.28;;;;;;;32.95;47.78;101157.91;1508607;94;21033;-47
2022/08/23 09:46:42;;;;;;;34.80;7.60;;;;;;;32.96;48.04;101158.72;1439679;99;21128;-49
2022/08/23 09:49:27;;;;;;;36.42;8.15;;;;;;;32.97;48.15;101155.87;1435112;99;21097;-49
2022/08/23 09:51:59;;;;;;;43.08;9.10;;;;;;;32.99;48.13;101159.28;1421018;99;21073;-56
2022/08/23 09:54:35;;;;;;;60.90;10.65;;;;;;;33.05;48.14;101164.00;1414509;99;21609;-55
2022/08/23 09:57:09;;;;;;;46.83;9.53;;;;;;;33.10;48.20;101161.63;1435032;99;21085;-50
2022/08/23 09:59:46;;;;;;;47.80;9.98;;;;;;;33.16;48.24;101160.95;1428148;99;21108;-51
2022/08/23 10:02:25;;;;;;;43.83;10.08;;;;;;;33.24;47.93;101160.94;1393629;100;21066;-52
2022/08/23 10:05:02;;;;;;;46.60;10.45;;;;;;;33.28;47.82;101162.31;1418804;100;21662;-49
2022/08/23 10:07:42;;;;;;;52.15;10.20;;;;;;;33.35;47.60;101159.75;1389093;103;21085;-53
2022/08/23 10:10:33;;;;;;;51.98;10.28;;;;;;;33.37;47.52;101158.58;1417918;101;21096;-49
2022/08/23 10:13:02;;;;;;;51.23;10.85;;;;;;;33.41;47.56;101157.22;1390571;102;21150;-47
2022/08/23 10:15:35;;;;;;;47.65;9.48;;;;;;;33.43;47.50;101153.84;1390963;102;21595;-52
2022/08/23 10:18:16;;;;;;;50.85;10.08;;;;;;;33.46;47.59;101155.37;1340801;106;21087;-50
2022/08/23 10:21:11;;;;;;;52.35;11.00;;;;;;;33.48;47.59;101154.69;1341067;106;21152;-48
2022/08/23 10:24:10;;;;;;;51.88;10.58;;;;;;;33.52;47.47;101162.31;1336495;107;21071;-49
2022/08/23 10:26:42;;;;;;;48.02;9.35;;;;;;;33.55;47.47;101163.83;1344773;106;21142;-51
2022/08/23 10:29:39;;;;;;;54.18;10.40;;;;;;;33.58;47.31;101160.27;1344770;105;21099;-52
2022/08/23 10:32:27;;;;;;;63.28;11.25;;;;;;;33.60;47.24;101164.98;1358922;105;21654;-56
2022/08/23 10:35:06;;;;;;;54.05;10.53;;;;;;;33.64;47.34;101169.02;1362287;105;21319;-52
2022/08/23 10:37:47;;;;;;;52.23;11.48;;;;;;;33.69;47.27;101166.31;1373952;103;21098;-53
2022/08/23 10:40:27;;;;;;;;;;;;;;;33.73;47.43;101166.30;1364366;105;21607;-49
2022/08/23 10:43:32;;;;;;;49.18;10.43;;;;;;;33.76;47.37;101167.32;1383801;101;20591;-49
2022/08/23 10:46:01;;;;;;;51.85;10.88;;;;;;;33.78;47.57;101166.64;1447519;98;21628;-47
2022/08/23 10:48:52;;;;;;;44.88;10.08;;;;;;;33.78;47.58;101161.24;1434610;96;21094;-51
2022/08/23 10:51:35;;;;;;;51.37;10.35;;;;;;;33.77;47.40;101168.99;1440175;99;21110;-54
2022/08/23 10:54:22;;;;;;;47.15;10.40;;;;;;;33.73;47.42;101173.91;1454679;98;21144;-46
2022/08/23 10:56:45;;;;;;;54.45;11.30;;;;;;;33.71;47.37;101173.23;1444756;99;21597;-50
2022/08/23 10:59:22;;;;;;;57.90;11.10;;;;;;;33.70;47.41;101172.88;1423194;101;21114;-47
2022/08/23 11:02:10;;;;;;;62.48;11.57;;;;;;;33.69;47.38;101165.81;1443381;98;21161;-47
2022/08/23 11:05:09;;;;;;;65.60;13.28;;;;;;;33.68;47.60;101172.71;1433096;93;21089;-50
2022/08/23 11:07:42;;;;;;;62.33;12.63;;;;;;;33.69;47.88;101177.11;1558847;90;21542;-48
2022/08/23 11:10:38;;;;;;;53.50;11.93;;;;;;;33.70;47.84;101175.58;1586343;90;21075;-51
2022/08/23 11:13:13;;;;;;;59.30;11.70;;;;;;;33.70;47.79;101172.88;1558729;92;20986;-47
2022/08/23 11:15:57;;;;;;;59.90;11.73;;;;;;;33.71;47.91;101168.33;1558771;90;21034;-47
2022/08/23 11:18:46;;;;;;;46.37;10.40;;;;;;;33.72;47.96;101171.38;1563172;91;21041;-49
2022/08/23 11:21:32;;;;;;;46.80;10.72;;;;;;;33.76;48.12;101167.32;1495421;96;21070;-50
2022/08/23 11:24:05;;;;;;;65.12;12.58;;;;;;;33.82;48.14;101170.67;1488013;96;21062;-47
2022/08/23 11:26:41;;;;;;;58.75;12.43;;;;;;;33.88;48.03;101168.10;1490291;96;21005;-47
2022/08/23 11:29:23;;;;;;;62.65;13.43;;;;;;;33.95;48.07;101169.60;1491246;96;21072;-49
2022/08/23 11:32:24;;;;;;;62.23;12.43;;;;;;;34.01;47.76;101168.94;1489846;96;21182;-49
2022/08/23 11:34:59;;;;;;;57.50;13.00;;;;;;;34.09;47.48;101176.50;1524507;93;21018;-52
2022/08/23 11:37:30;;;;;;;74.30;13.88;;;;;;;34.17;47.42;101181.05;1570357;91;21039;-51
2022/08/23 11:40:01;;;;;;;69.62;15.60;;;;;;;34.23;47.43;101178.99;1535536;92;21086;-50
2022/08/23 11:42:51;;;;;;;73.20;15.53;;;;;;;34.30;47.43;101173.20;1540261;92;21555;-48
2022/08/23 11:45:38;;;;;;;75.92;15.18;;;;;;;34.37;46.99;101171.49;1540287;93;21080;-48
2022/08/23 11:48:35;;;;;;;74.50;15.15;;;;;;;34.41;46.82;101171.47;1521276;92;21518;-49